METAR Data
IDs: Format: Raw Decoded Include TAF

Data at: 1117 UTC 18 Jan 2022

KXWA 181107Z AUTO 33031G39KT 6SM BR BKN009 BKN016 M01/M03 A2950 RMK AO2 PK WND 33041/1052 CIG 007V013 T10061028
KXWA 181102Z AUTO 33030G40KT 7SM BKN011 BKN016 M01/M03 A2949 RMK AO2 PK WND 33041/1052 CIG 008V013 T10061028
KXWA 181051Z AUTO 33030G40KT 7SM SCT016 BKN100 01/M02 A2948 RMK AO2 PK WND 33040/1048 SLP014 T00061022
KXWA 180951Z AUTO 26017KT 10SM FEW080 OVC100 01/M02 A2943 RMK AO2 SLP997 T00111017
KXWA 180851Z AUTO 27016KT 10SM OVC090 02/M02 A2940 RMK AO2 SLP985 T00171017 55002
KXWA 180751Z AUTO 26015KT 10SM BKN100 00/M03 A2939 RMK AO2 SLP982 T00001033
KXWA 180651Z AUTO 25011KT 10SM CLR M01/M04 A2939 RMK AO2 SLP987 T10061039
KXWA 180551Z AUTO 23007KT 10SM CLR M02/M04 A2941 RMK AO2 SLP994 T10171044 11006 21028 400171061 56023
KXWA 180451Z AUTO 21010KT 10SM CLR M02/M04 A2942 RMK AO2 SLP001 T10171044
KXWA 180351Z AUTO 20007KT 10SM CLR M02/M04 A2946 RMK AO2 SLP012 T10171039
KXWA 180251Z AUTO 19011KT 10SM CLR M02/M04 A2948 RMK AO2 SLP020 T10221044 58025
KXWA 180151Z AUTO 18008KT 10SM CLR M02/M04 A2951 RMK AO2 SLP031 T10171039
KXWA 180051Z AUTO 18008KT 10SM CLR M02/M04 A2954 RMK AO2 SLP040 T10171044
KXWA 172351Z AUTO 18009KT 10SM CLR M01/M04 A2956 RMK AO2 SLP044 T10111044 10017 21033 58020
KXWA 172251Z AUTO 19009KT 10SM CLR M01/M04 A2959 RMK AO2 SLP054 T10111044
KXWA 172151Z AUTO 20009KT 10SM CLR 00/M03 A2961 RMK AO2 SLP060 T00001033
KXWA 172051Z AUTO 19009KT 10SM CLR 00/M03 A2962 RMK AO2 SLP065 T00001033 58018
KXWA 171951Z AUTO 01003KT 10SM BKN100 M01/M02 A2964 RMK AO2 SLP071 T10061022
KXWA 171851Z AUTO 28006KT 10SM BKN110 M02/M04 A2967 RMK AO2 SLP086 T10171039
KXWA 171751Z AUTO 22008KT 10SM CLR M03/M05 A2968 RMK AO2 SLP090 I6000 T10331050 11028 21061 58002
KXWA 171651Z AUTO 27008KT 10SM CLR M04/M05 A2968 RMK AO2 SLP091 T10391050
KXWA 171551Z AUTO 27007KT 6SM BR CLR M04/M06 A2968 RMK AO2 SLP093 T10441056
KXWA 171451Z AUTO 25007KT 10SM CLR M03/M05 A2968 RMK AO2 SLP092 I1000 I3000 T10331050 53002
KXWA 171351Z AUTO 19006KT 10SM CLR M03/M05 A2967 RMK AO2 SLP087 T10331050
KXWA 171251Z AUTO 22006KT 10SM CLR M03/M05 A2969 RMK AO2 SLP092 T10331050
KXWA 171151Z AUTO 19007KT 10SM BKN085 M03/M05 A2968 RMK AO2 SLP088 T10281050 11017 21044 57014
KXWA 171051Z AUTO 18008KT 10SM OVC085 M02/M04 A2969 RMK AO2 SLP091 T10221044
KXWA 170951Z AUTO 17010KT 10SM OVC060 M02/M04 A2970 RMK AO2 SLP094 T10221044
KXWA 170851Z AUTO 17009KT 10SM OVC060 M03/M05 A2972 RMK AO2 SLP100 T10281050 58029
KXWA 170751Z AUTO 17010KT 10SM BKN070 BKN080 OVC110 M03/M05 A2975 RMK AO2 SLP110 T10281050
KXWA 170651Z AUTO 17009KT 10SM OVC095 M03/M06 A2978 RMK AO2 SLP125 T10331056
KXWA 170551Z AUTO 19007KT 10SM SCT110 M04/M07 A2981 RMK AO2 SLP135 T10441067 11022 21050 400171050 56022
KXWA 170451Z AUTO 23008KT 10SM BKN110 M04/M07 A2983 RMK AO2 SLP142 T10391067
KXWA 170351Z AUTO 26011KT 10SM FEW120 M04/M07 A2985 RMK AO2 SLP149 T10441067
KXWA 170251Z AUTO 27010KT 10SM CLR M05/M07 A2988 RMK AO2 SLP160 T10501072 58015
KXWA 170151Z AUTO 26011KT 10SM CLR M05/M07 A2991 RMK AO2 SLP167 T10501072
KXWA 170051Z AUTO 24009KT 10SM CLR M04/M06 A2991 RMK AO2 SLP167 T10391061
KXWA 162351Z AUTO 27010KT 10SM CLR M03/M06 A2993 RMK AO2 SLP173 T10331061 10000 21033 56014